Henry County Airport


Codes: KPHT/PHT
Name: Henry County Airport
City: Paris
Country: United States
Elevation: 580 ft.
Website:
Wikipedia:

Photos at Henry County Airport


   Photos courtesy of SpottingLog. You can add your own sightings and photos by signing up for a free trial today.



No photos found.

Weather at Henry County Airport


Time (UTC)DescriptionTempratureWindCloud coverageVisibilityPressureHumidity
17-Jun-2024 06:00Few Clouds25°C9 mph, SE15%10000m1016hPa89%
17-Jun-2024 09:00Scattered Clouds23°C7 mph, S47%10000m1016hPa91%
17-Jun-2024 12:00Overcast Clouds23°C9 mph, S86%10000m1016hPa91%
17-Jun-2024 15:00Overcast Clouds27°C11 mph, S96%10000m1017hPa74%
17-Jun-2024 18:00Light Rain29°C13 mph, S98%10000m1017hPa66%
17-Jun-2024 21:00Light Rain30°C11 mph, S93%7814m1016hPa67%
18-Jun-2024 00:00Light Rain26°C7 mph, S95%10000m1016hPa89%
18-Jun-2024 03:00Light Rain23°C7 mph, S100%10000m1017hPa89%
18-Jun-2024 06:00Overcast Clouds22°C9 mph, S100%10000m1017hPa88%
18-Jun-2024 09:00Light Rain21°C7 mph, S100%10000m1017hPa95%
18-Jun-2024 12:00Overcast Clouds22°C7 mph, SE98%10000m1019hPa94%
18-Jun-2024 15:00Overcast Clouds26°C11 mph, S100%10000m1019hPa75%
18-Jun-2024 18:00Overcast Clouds30°C11 mph, S98%10000m1018hPa58%
18-Jun-2024 21:00Light Rain28°C7 mph, S84%10000m1018hPa70%
19-Jun-2024 00:00Light Rain25°C4 mph, S92%10000m1018hPa82%
19-Jun-2024 03:00Overcast Clouds23°C4 mph, SE100%10000m1019hPa77%
19-Jun-2024 06:00Overcast Clouds22°C7 mph, SE100%10000m1018hPa77%
19-Jun-2024 09:00Overcast Clouds22°C7 mph, E100%10000m1019hPa76%
19-Jun-2024 12:00Overcast Clouds22°C7 mph, SE100%10000m1022hPa76%
19-Jun-2024 15:00Overcast Clouds24°C7 mph, SE100%10000m1023hPa75%
19-Jun-2024 18:00Overcast Clouds29°C4 mph, SE100%10000m1022hPa58%
19-Jun-2024 21:00Overcast Clouds29°C9 mph, E100%10000m1021hPa67%
20-Jun-2024 00:00Overcast Clouds26°C4 mph, SE100%10000m1022hPa77%
20-Jun-2024 03:00Overcast Clouds23°C4 mph, E97%10000m1023hPa70%
20-Jun-2024 06:00Overcast Clouds22°C7 mph, NE98%10000m1023hPa83%
20-Jun-2024 09:00Overcast Clouds21°C7 mph, E100%10000m1023hPa86%
20-Jun-2024 12:00Overcast Clouds22°C7 mph, E100%10000m1024hPa86%
20-Jun-2024 15:00Broken Clouds27°C9 mph, SE64%10000m1025hPa66%
20-Jun-2024 18:00Broken Clouds30°C2 mph, SE71%10000m1024hPa56%
20-Jun-2024 21:00Broken Clouds31°C2 mph, NE65%10000m1022hPa52%
21-Jun-2024 00:00Light Rain27°C4 mph, NE82%10000m1022hPa74%
21-Jun-2024 03:00Overcast Clouds25°C4 mph, E100%10000m1022hPa79%
21-Jun-2024 06:00Broken Clouds22°C4 mph, E84%10000m1022hPa87%
21-Jun-2024 09:00Overcast Clouds22°C2 mph, NE98%10000m1022hPa90%
21-Jun-2024 12:00Overcast Clouds23°C4 mph, E99%10000m1023hPa88%
21-Jun-2024 15:00Overcast Clouds28°C4 mph, SE97%10000m1023hPa70%
21-Jun-2024 18:00Light Rain31°C2 mph, S96%10000m1021hPa56%
21-Jun-2024 21:00Overcast Clouds32°C2 mph, NW95%10000m1019hPa50%
22-Jun-2024 00:00Overcast Clouds28°C4 mph, NE95%10000m1019hPa71%
22-Jun-2024 03:00Broken Clouds25°C7 mph, E66%10000m1019hPa69%